createdAt,value
2022-08-01T00:00:09.336Z,2.60
2022-08-01T00:02:39.219Z,2.38
2022-08-01T00:05:07.991Z,2.50
2022-08-01T00:07:35.554Z,2.33
2022-08-01T00:10:03.816Z,2.35
2022-08-01T00:12:30.285Z,2.05
2022-08-01T00:14:57.024Z,2.35
2022-08-01T00:17:23.548Z,2.67
2022-08-01T00:19:50.067Z,2.13
2022-08-01T00:22:16.592Z,2.22
2022-08-01T00:24:43.192Z,2.40
2022-08-01T00:27:09.831Z,2.60
2022-08-01T00:30:12.532Z,2.38
2022-08-01T00:32:22.881Z,2.53
2022-08-01T00:34:50.562Z,2.67
2022-08-01T00:37:18.129Z,2.70
2022-08-01T00:39:44.988Z,3.15
2022-08-01T00:42:13.386Z,3.08
2022-08-01T00:44:40.973Z,2.67
2022-08-01T00:47:08.272Z,2.42
2022-08-01T00:49:35.294Z,2.30
2022-08-01T00:52:03.631Z,2.95
2022-08-01T00:54:30.855Z,3.22
2022-08-01T00:56:58.813Z,2.95
2022-08-01T00:59:26.474Z,3.35
2022-08-01T01:01:53.723Z,3.28
2022-08-01T01:04:20.643Z,3.78
2022-08-01T01:07:15.110Z,3.03
2022-08-01T01:10:05.748Z,3.08
2022-08-01T01:12:39.914Z,3.03
2022-08-01T01:15:23.522Z,3.03
2022-08-01T01:17:56.371Z,3.85
2022-08-01T01:20:28.022Z,3.80
2022-08-01T01:22:54.341Z,3.47
2022-08-01T01:25:39.532Z,3.45
2022-08-01T01:28:36.216Z,3.80
2022-08-01T01:31:04.373Z,2.90
2022-08-01T01:33:34.282Z,3.40
2022-08-01T01:36:07.604Z,3.80
2022-08-01T01:38:42.949Z,3.55
2022-08-01T01:41:11.965Z,3.88
2022-08-01T01:43:40.380Z,4.05
2022-08-01T01:46:09.974Z,3.47
2022-08-01T01:48:38.437Z,4.07
2022-08-01T01:51:06.060Z,4.05
2022-08-01T01:53:34.945Z,3.90
2022-08-01T01:56:03.480Z,3.78
2022-08-01T01:58:32.705Z,4.40
2022-08-01T02:01:02.783Z,4.28
2022-08-01T02:03:32.197Z,4.20
2022-08-01T02:06:00.523Z,4.25
2022-08-01T02:08:30.630Z,4.20
2022-08-01T02:11:18.099Z,4.13
2022-08-01T02:13:47.942Z,4.32
2022-08-01T02:16:16.261Z,4.80
2022-08-01T02:18:43.183Z,3.90
2022-08-01T02:21:13.430Z,4.32
2022-08-01T02:23:40.271Z,4.13
2022-08-01T02:26:11.876Z,3.80
2022-08-01T02:29:06.642Z,4.40
2022-08-01T02:31:36.385Z,3.78
2022-08-01T02:34:10.359Z,4.43
2022-08-01T02:36:37.975Z,3.90
2022-08-01T02:39:09.479Z,3.63
2022-08-01T02:41:50.976Z,3.78
2022-08-01T02:44:28.379Z,3.95
2022-08-01T02:47:03.375Z,3.47
2022-08-01T02:49:36.306Z,4.22
2022-08-01T02:52:08.233Z,3.47
2022-08-01T02:54:37.011Z,4.50
2022-08-01T02:57:05.239Z,3.50
2022-08-01T02:59:36.014Z,3.70
2022-08-01T03:02:06.401Z,3.83
2022-08-01T03:04:37.794Z,3.35
2022-08-01T03:07:07.151Z,4.10
2022-08-01T03:09:39.722Z,4.40
2022-08-01T03:12:15.220Z,3.47
2022-08-01T03:14:44.119Z,3.90
2022-08-01T03:17:12.455Z,3.72
2022-08-01T03:19:40.459Z,4.10
2022-08-01T03:22:10.444Z,3.80
2022-08-01T03:24:40.295Z,3.80
2022-08-01T03:27:09.431Z,4.10
2022-08-01T03:29:37.150Z,3.90
2022-08-01T03:32:04.906Z,3.50
2022-08-01T03:34:31.719Z,4.03
2022-08-01T03:37:25.289Z,4.40
2022-08-01T03:39:58.480Z,4.13
2022-08-01T03:42:32.039Z,3.60
2022-08-01T03:45:03.654Z,3.58
2022-08-01T03:47:34.490Z,4.40
2022-08-01T03:50:12.540Z,4.05
2022-08-01T03:52:42.818Z,3.65
2022-08-01T03:55:10.994Z,3.90
2022-08-01T03:57:38.260Z,3.72
2022-08-01T04:00:10.174Z,4.20
2022-08-01T04:02:37.863Z,4.30
2022-08-01T04:05:05.475Z,3.50
2022-08-01T04:07:36.989Z,4.25
2022-08-01T04:10:04.842Z,4.00
2022-08-01T04:12:31.504Z,4.15
2022-08-01T04:14:59.091Z,3.90
2022-08-01T04:17:25.946Z,3.90
2022-08-01T04:19:52.395Z,4.18
2022-08-01T04:22:19.059Z,4.32
2022-08-01T04:24:56.495Z,3.95
2022-08-01T04:27:48.455Z,4.05
2022-08-01T04:30:21.016Z,3.67
2022-08-01T04:32:48.852Z,4.13
2022-08-01T04:35:23.288Z,3.90
2022-08-01T04:38:07.197Z,4.43
2022-08-01T04:40:37.054Z,4.07
2022-08-01T04:43:04.141Z,3.78
2022-08-01T04:45:31.722Z,3.13
2022-08-01T04:47:58.791Z,3.08
2022-08-01T04:50:25.462Z,3.00
2022-08-01T04:52:52.598Z,3.00
2022-08-01T04:55:22.374Z,2.30
2022-08-01T04:57:49.075Z,1.88
2022-08-01T05:00:17.519Z,1.90
2022-08-01T05:02:44.469Z,1.70
2022-08-01T05:05:11.499Z,1.80
2022-08-01T05:07:45.290Z,1.92
2022-08-01T05:10:12.903Z,1.60
2022-08-01T05:12:39.479Z,1.58
2022-08-01T05:15:13.124Z,1.42
2022-08-01T05:17:43.322Z,1.17
2022-08-01T05:20:11.316Z,1.23
2022-08-01T05:22:38.190Z,1.95
2022-08-01T05:25:09.055Z,1.30
2022-08-01T05:27:40.749Z,1.52
2022-08-01T05:30:09.222Z,1.38
2022-08-01T05:32:36.352Z,1.42
2022-08-01T05:35:04.373Z,1.95
2022-08-01T05:37:35.204Z,1.75
2022-08-01T05:40:02.247Z,1.52
2022-08-01T05:42:28.658Z,1.35
2022-08-01T05:44:55.451Z,1.35
2022-08-01T05:47:21.896Z,1.50
2022-08-01T05:49:48.395Z,1.40
2022-08-01T05:52:15.026Z,1.52
2022-08-01T05:54:41.857Z,1.50
2022-08-01T05:57:08.337Z,1.30
2022-08-01T05:59:34.878Z,1.50
2022-08-01T06:02:01.306Z,1.10
2022-08-01T06:04:27.952Z,1.40
2022-08-01T06:06:54.760Z,1.13
2022-08-01T06:09:21.226Z,1.30
2022-08-01T06:11:47.618Z,1.30
2022-08-01T06:14:14.009Z,1.20
2022-08-01T06:16:40.681Z,1.30
2022-08-01T06:19:07.104Z,1.25
2022-08-01T06:21:33.565Z,1.25
2022-08-01T06:23:59.989Z,1.45
2022-08-01T06:26:26.843Z,1.30
2022-08-01T06:28:53.340Z,1.33
2022-08-01T06:31:19.776Z,1.40
2022-08-01T06:33:46.207Z,1.30
2022-08-01T06:36:13.881Z,1.50
2022-08-01T06:38:40.389Z,1.60
2022-08-01T06:41:06.839Z,1.10
2022-08-01T06:43:33.373Z,1.13
2022-08-01T06:46:00.371Z,1.65
2022-08-01T06:48:27.489Z,1.58
2022-08-01T06:51:09.036Z,1.40
2022-08-01T06:53:39.354Z,1.38
2022-08-01T06:56:07.973Z,1.60
2022-08-01T06:58:35.609Z,1.63
2022-08-01T07:01:03.620Z,1.65
2022-08-01T07:03:52.952Z,1.50
2022-08-01T07:06:18.942Z,1.60
2022-08-01T07:08:45.370Z,1.40
2022-08-01T07:11:11.866Z,1.55
2022-08-01T07:13:45.474Z,1.63
2022-08-01T07:16:16.708Z,1.88
2022-08-01T07:18:43.767Z,1.60
2022-08-01T07:21:16.545Z,1.77
2022-08-01T07:23:57.095Z,2.05
2022-08-01T07:26:23.940Z,1.70
2022-08-01T07:28:50.455Z,1.42
2022-08-01T07:31:17.014Z,1.60
2022-08-01T07:33:47.989Z,2.03
2022-08-01T07:36:16.913Z,1.50
2022-08-01T07:38:43.622Z,1.73
2022-08-01T07:41:10.157Z,1.83
2022-08-01T07:43:37.033Z,2.25
2022-08-01T07:46:07.957Z,2.38
2022-08-01T07:48:34.690Z,2.70
2022-08-01T07:51:02.850Z,2.45
2022-08-01T07:53:37.350Z,2.60
2022-08-01T07:56:06.959Z,2.30
2022-08-01T07:58:34.320Z,2.95
2022-08-01T08:01:00.962Z,2.75
2022-08-01T08:03:27.695Z,2.30
2022-08-01T08:05:59.928Z,2.42
2022-08-01T08:08:27.167Z,2.80
2022-08-01T08:10:53.623Z,2.50
2022-08-01T08:13:20.114Z,2.55
2022-08-01T08:15:49.928Z,2.55
2022-08-01T08:18:16.781Z,2.53
2022-08-01T08:20:43.586Z,2.30
2022-08-01T08:23:42.676Z,2.35
2022-08-01T08:26:13.905Z,2.35
2022-08-01T08:28:40.909Z,2.70
2022-08-01T08:31:25.468Z,3.05
2022-08-01T08:33:55.536Z,2.15
2022-08-01T08:36:22.124Z,2.40
2022-08-01T08:38:58.136Z,2.40
2022-08-01T08:41:24.893Z,2.80
2022-08-01T08:43:51.680Z,2.53
2022-08-01T08:46:28.138Z,2.22
2022-08-01T08:51:26.672Z,2.47
2022-08-01T08:54:03.781Z,1.90
2022-08-01T08:56:35.111Z,2.22
2022-08-01T08:59:03.281Z,2.22
2022-08-01T09:01:33.477Z,2.17
2022-08-01T09:04:00.640Z,2.28
2022-08-01T09:06:27.689Z,2.30
2022-08-01T09:08:54.847Z,1.90
2022-08-01T09:11:23.061Z,1.70
2022-08-01T09:14:04.629Z,1.90
2022-08-01T09:16:32.371Z,1.40
2022-08-01T09:19:39.898Z,1.95
2022-08-01T09:22:10.702Z,1.70
2022-08-01T09:24:38.544Z,1.88
2022-08-01T09:27:26.458Z,2.33
2022-08-01T09:30:01.267Z,1.50
2022-08-01T09:32:35.260Z,1.30
2022-08-01T09:35:30.016Z,1.23
2022-08-01T09:38:17.932Z,1.58
2022-08-01T09:40:55.053Z,1.48
2022-08-01T09:43:24.263Z,1.83
2022-08-01T09:45:53.287Z,1.67
2022-08-01T09:48:22.398Z,1.90
2022-08-01T09:50:52.249Z,2.30
2022-08-01T09:53:25.670Z,1.95
2022-08-01T09:56:10.406Z,1.23
2022-08-01T09:59:00.886Z,1.30
2022-08-01T10:01:36.781Z,1.30
2022-08-01T10:04:09.830Z,1.02
2022-08-01T10:06:38.085Z,1.27
2022-08-01T10:09:04.840Z,1.30
2022-08-01T10:11:36.062Z,1.10
2022-08-01T10:14:03.885Z,1.13
2022-08-01T10:16:32.891Z,1.10
2022-08-01T10:19:00.221Z,1.05
2022-08-01T10:21:57.413Z,1.08
2022-08-01T10:24:15.134Z,1.33
2022-08-01T10:26:49.250Z,1.35
2022-08-01T10:29:24.192Z,1.08
2022-08-01T10:32:07.198Z,1.10
2022-08-01T10:34:35.540Z,1.15
2022-08-01T10:37:02.548Z,0.90
2022-08-01T10:39:33.406Z,1.23
2022-08-01T10:42:01.048Z,1.23
2022-08-01T10:44:31.383Z,1.50
2022-08-01T10:47:10.354Z,1.27
2022-08-01T10:49:43.750Z,1.40
2022-08-01T10:52:20.505Z,1.27
2022-08-01T10:54:52.868Z,1.13
2022-08-01T10:57:19.658Z,1.60
2022-08-01T11:02:34.627Z,1.00
2022-08-01T11:05:20.324Z,1.20
2022-08-01T11:07:53.865Z,1.00
2022-08-01T11:10:29.475Z,1.10
2022-08-01T11:12:55.977Z,1.40
2022-08-01T11:15:29.178Z,1.25
2022-08-01T11:17:57.959Z,1.40
2022-08-01T11:20:31.823Z,1.58
2022-08-01T11:23:07.660Z,1.33
2022-08-01T11:26:04.765Z,1.42
2022-08-01T11:28:32.372Z,1.40
2022-08-01T11:31:10.801Z,1.60
2022-08-01T11:36:11.703Z,1.80
2022-08-01T11:38:47.016Z,1.67
2022-08-01T11:41:38.712Z,1.60
2022-08-01T11:44:14.823Z,2.17
2022-08-01T11:47:09.047Z,1.30
2022-08-01T11:49:45.272Z,1.60
2022-08-01T11:52:17.210Z,1.80
2022-08-01T11:54:58.108Z,1.42
2022-08-01T11:57:35.941Z,1.27
2022-08-01T12:00:16.838Z,1.73
2022-08-01T12:02:46.092Z,1.40
2022-08-01T12:05:15.995Z,1.10
2022-08-01T12:07:44.149Z,1.38
2022-08-01T12:10:12.736Z,1.02
2022-08-01T12:12:56.189Z,1.15
2022-08-01T12:15:24.942Z,1.45
2022-08-01T12:17:58.879Z,0.80
2022-08-01T12:20:30.989Z,1.35
2022-08-01T12:23:06.797Z,1.35
2022-08-01T12:25:33.962Z,1.10
2022-08-01T12:28:06.026Z,1.08
2022-08-01T12:30:36.248Z,1.00
2022-08-01T12:33:05.803Z,1.27
2022-08-01T12:35:33.503Z,0.95
2022-08-01T12:38:14.457Z,1.00
2022-08-01T12:40:46.061Z,1.08
2022-08-01T12:43:27.131Z,0.90
2022-08-01T12:46:00.422Z,0.95
2022-08-01T12:48:27.730Z,1.08
2022-08-01T12:50:58.262Z,0.95
2022-08-01T12:53:24.851Z,0.80
2022-08-01T12:55:59.613Z,1.40
2022-08-01T12:58:32.698Z,0.90
2022-08-01T13:01:10.243Z,0.80
2022-08-01T13:03:37.365Z,0.73
2022-08-01T13:06:15.469Z,0.82
2022-08-01T13:08:42.580Z,0.90
2022-08-01T13:11:18.157Z,0.70
2022-08-01T13:13:50.434Z,1.08
2022-08-01T13:16:30.935Z,0.63
2022-08-01T13:19:07.193Z,0.70
2022-08-01T13:21:52.227Z,0.57
2022-08-01T13:24:28.182Z,0.75
2022-08-01T13:27:01.039Z,0.60
2022-08-01T13:29:38.693Z,1.10
2022-08-01T13:32:28.537Z,1.00
2022-08-01T13:35:13.090Z,0.75
2022-08-01T13:37:41.946Z,0.70
2022-08-01T13:40:10.106Z,0.77
2022-08-01T13:42:37.091Z,1.40
2022-08-01T13:45:14.441Z,1.02
2022-08-01T13:48:03.956Z,0.77
2022-08-01T13:50:31.443Z,0.70
2022-08-01T13:52:57.840Z,0.80
2022-08-01T13:55:24.339Z,0.70
2022-08-01T13:57:51.083Z,0.60
2022-08-01T14:00:17.622Z,0.60
2022-08-01T14:02:44.207Z,0.63
2022-08-01T14:05:10.800Z,0.70
2022-08-01T14:07:39.582Z,0.68
2022-08-01T14:10:19.271Z,0.60
2022-08-01T14:12:47.633Z,0.50
2022-08-01T14:15:14.659Z,0.50
2022-08-01T14:17:52.897Z,0.57
2022-08-01T14:20:20.659Z,0.75
2022-08-01T14:22:47.960Z,0.68
2022-08-01T14:25:23.987Z,0.57
2022-08-01T14:28:00.876Z,0.60
2022-08-01T14:30:27.309Z,0.68
2022-08-01T14:32:53.705Z,0.70
2022-08-01T14:35:20.479Z,0.50
2022-08-01T14:37:46.893Z,0.80
2022-08-01T14:40:13.577Z,0.73
2022-08-01T14:42:40.702Z,0.82
2022-08-01T14:45:11.184Z,0.80
2022-08-01T14:47:42.333Z,0.73
2022-08-01T14:50:14.246Z,0.73
2022-08-01T14:52:41.454Z,0.65
2022-08-01T14:55:09.652Z,0.70
2022-08-01T14:57:36.938Z,0.75
2022-08-01T15:00:06.249Z,0.60
2022-08-01T15:02:32.792Z,0.73
2022-08-01T15:04:59.809Z,1.02
2022-08-01T15:07:27.241Z,0.90
2022-08-01T15:09:53.940Z,0.80
2022-08-01T15:12:23.033Z,0.80
2022-08-01T15:14:49.870Z,1.23
2022-08-01T15:17:26.589Z,0.80
2022-08-01T15:19:54.791Z,0.63
2022-08-01T15:22:22.609Z,0.80
2022-08-01T15:24:55.386Z,0.80
2022-08-01T15:27:24.068Z,0.80
2022-08-01T15:29:50.796Z,0.80
2022-08-01T15:32:17.406Z,0.65
2022-08-01T15:34:44.185Z,1.08
2022-08-01T15:37:11.365Z,0.73
2022-08-01T15:39:38.374Z,1.00
2022-08-01T15:42:10.574Z,0.80
2022-08-01T15:44:37.178Z,1.00
2022-08-01T15:47:05.045Z,0.93
2022-08-01T15:49:32.148Z,0.77
2022-08-01T15:51:58.758Z,0.82
2022-08-01T15:54:25.462Z,0.80
2022-08-01T15:56:52.223Z,0.70
2022-08-01T15:59:18.603Z,0.93
2022-08-01T16:01:51.230Z,0.80
2022-08-01T16:04:18.684Z,0.70
2022-08-01T16:06:45.554Z,0.98
2022-08-01T16:09:19.246Z,0.90
2022-08-01T16:11:50.568Z,0.82
2022-08-01T16:14:17.787Z,0.70
2022-08-01T16:16:44.604Z,0.82
2022-08-01T16:19:19.592Z,1.10
2022-08-01T16:21:47.824Z,0.70
2022-08-01T16:24:14.530Z,0.70
2022-08-01T16:26:41.226Z,0.60
2022-08-01T16:29:07.635Z,0.90
2022-08-01T16:31:37.899Z,0.88
2022-08-01T16:34:21.168Z,1.05
2022-08-01T16:36:50.645Z,0.90
2022-08-01T16:39:22.445Z,0.77
2022-08-01T16:41:55.159Z,0.80
2022-08-01T16:44:33.783Z,0.90
2022-08-01T16:47:02.793Z,1.30
2022-08-01T16:49:29.264Z,1.38
2022-08-01T16:51:55.769Z,1.80
2022-08-01T16:54:24.967Z,1.10
2022-08-01T16:56:52.982Z,1.00
2022-08-01T16:59:22.603Z,1.10
2022-08-01T17:04:31.211Z,1.00
2022-08-01T17:07:00.626Z,1.00
2022-08-01T17:09:27.282Z,2.65
2022-08-01T17:11:53.677Z,1.25
2022-08-01T17:14:20.148Z,1.10
2022-08-01T17:16:46.678Z,0.80
2022-08-01T17:19:14.806Z,0.90
2022-08-01T17:21:41.919Z,0.90
2022-08-01T17:24:11.872Z,1.02
2022-08-01T17:26:45.261Z,0.85
2022-08-01T17:29:11.678Z,1.10
2022-08-01T17:31:38.102Z,1.00
2022-08-01T17:34:04.568Z,0.85
2022-08-01T17:36:31.893Z,0.93
2022-08-01T17:38:59.544Z,0.85
2022-08-01T17:41:26.626Z,0.95
2022-08-01T17:43:53.096Z,0.77
2022-08-01T17:46:19.775Z,0.85
2022-08-01T17:48:46.746Z,0.63
2022-08-01T17:51:13.461Z,1.10
2022-08-01T17:53:55.665Z,0.73
2022-08-01T17:56:25.731Z,0.80
2022-08-01T17:58:52.516Z,0.80
2022-08-01T18:01:19.972Z,0.75
2022-08-01T18:03:47.091Z,0.65
2022-08-01T18:06:19.236Z,0.70
2022-08-01T18:08:47.704Z,0.80
2022-08-01T18:11:15.245Z,0.90
2022-08-01T18:13:41.829Z,0.65
2022-08-01T18:16:11.133Z,0.70
2022-08-01T18:18:40.004Z,0.80
2022-08-01T18:21:07.873Z,0.65
2022-08-01T18:23:35.202Z,0.93
2022-08-01T18:26:07.537Z,0.68
2022-08-01T18:28:46.506Z,0.60
2022-08-01T18:31:16.719Z,0.60
2022-08-01T18:33:43.513Z,0.82
2022-08-01T18:36:15.351Z,0.60
2022-08-01T18:39:05.586Z,0.77
2022-08-01T18:41:34.320Z,0.82
2022-08-01T18:44:04.275Z,0.65
2022-08-01T18:46:37.625Z,0.75
2022-08-01T18:49:05.514Z,1.02
2022-08-01T18:51:32.217Z,0.90
2022-08-01T18:53:58.828Z,1.00
2022-08-01T18:56:25.430Z,0.93
2022-08-01T18:58:54.372Z,0.90
2022-08-01T19:01:21.535Z,0.90
2022-08-01T19:03:51.259Z,0.60
2022-08-01T19:06:17.852Z,1.02
2022-08-01T19:08:45.985Z,0.93
2022-08-01T19:11:12.756Z,0.80
2022-08-01T19:13:39.348Z,0.60
2022-08-01T19:16:06.232Z,0.70
2022-08-01T19:18:35.148Z,0.90
2022-08-01T19:21:04.473Z,0.85
2022-08-01T19:23:49.676Z,1.10
2022-08-01T19:26:19.348Z,0.88
2022-08-01T19:28:51.230Z,1.10
2022-08-01T19:31:22.574Z,1.00
2022-08-01T19:33:51.672Z,1.90
2022-08-01T19:36:18.648Z,0.93
2022-08-01T19:38:48.841Z,1.10
2022-08-01T19:41:19.117Z,1.13
2022-08-01T19:43:47.200Z,1.02
2022-08-01T19:46:17.832Z,1.13
2022-08-01T19:48:48.515Z,1.33
2022-08-01T19:51:19.365Z,0.88
2022-08-01T19:53:50.510Z,1.27
2022-08-01T19:56:40.511Z,1.10
2022-08-01T19:59:08.530Z,1.40
2022-08-01T20:01:37.795Z,1.33
2022-08-01T20:04:05.057Z,1.48
2022-08-01T20:06:32.657Z,1.23
2022-08-01T20:09:00.045Z,1.85
2022-08-01T20:11:27.117Z,1.20
2022-08-01T20:13:56.893Z,1.30
2022-08-01T20:16:49.327Z,1.20
2022-08-01T20:19:18.793Z,1.80
2022-08-01T20:22:03.537Z,1.33
2022-08-01T20:24:43.496Z,1.30
2022-08-01T20:27:13.855Z,1.20
2022-08-01T20:29:49.895Z,1.08
2022-08-01T20:32:17.718Z,1.25
2022-08-01T20:34:46.771Z,1.17
2022-08-01T20:37:17.487Z,1.38
2022-08-01T20:40:04.426Z,1.33
2022-08-01T20:42:32.175Z,1.50
2022-08-01T20:45:04.305Z,1.13
2022-08-01T20:47:35.707Z,1.23
2022-08-01T20:50:52.461Z,1.55
2022-08-01T20:53:13.466Z,1.27
2022-08-01T20:55:50.172Z,1.65
2022-08-01T20:58:39.483Z,1.98
2022-08-01T21:03:44.655Z,1.75
2022-08-01T21:06:29.208Z,1.48
2022-08-01T21:09:00.661Z,1.45
2022-08-01T21:11:36.497Z,1.20
2022-08-01T21:14:06.286Z,1.10
2022-08-01T21:16:39.744Z,1.17
2022-08-01T21:19:20.093Z,1.25
2022-08-01T21:21:55.864Z,1.38
2022-08-01T21:24:25.990Z,1.33
2022-08-01T21:26:55.366Z,1.42
2022-08-01T21:29:24.186Z,1.40
2022-08-01T21:32:11.499Z,1.40
2022-08-01T21:34:39.657Z,1.30
2022-08-01T21:37:10.819Z,1.40
2022-08-01T21:39:38.252Z,1.30
2022-08-01T21:42:09.038Z,1.10
2022-08-01T21:44:42.301Z,2.00
2022-08-01T21:47:11.930Z,1.30
2022-08-01T21:49:40.613Z,1.20
2022-08-01T21:52:10.393Z,1.45
2022-08-01T21:54:48.839Z,1.23
2022-08-01T21:57:31.587Z,1.30
2022-08-01T22:00:09.648Z,1.40
2022-08-01T22:02:43.695Z,1.33
2022-08-01T22:05:17.437Z,1.35
2022-08-01T22:07:51.974Z,1.17
2022-08-01T22:10:20.107Z,1.30
2022-08-01T22:12:47.293Z,2.00
2022-08-01T22:15:19.001Z,1.10
2022-08-01T22:17:49.586Z,1.58
2022-08-01T22:20:16.158Z,1.55
2022-08-01T22:22:51.976Z,1.42
2022-08-01T22:25:29.374Z,1.50
2022-08-01T22:28:07.828Z,1.40
2022-08-01T22:30:41.559Z,1.30
2022-08-01T22:33:16.680Z,1.58
2022-08-01T22:35:49.867Z,1.55
2022-08-01T22:38:22.619Z,1.50
2022-08-01T22:41:04.510Z,1.30
2022-08-01T22:43:42.394Z,1.63
2022-08-01T22:46:29.828Z,1.50
2022-08-01T22:49:01.854Z,1.30
2022-08-01T22:51:41.891Z,1.30
2022-08-01T22:54:12.624Z,1.60
2022-08-01T22:59:42.606Z,1.30
2022-08-01T23:02:14.646Z,1.60
2022-08-01T23:04:49.503Z,1.50
2022-08-01T23:07:22.936Z,1.40
2022-08-01T23:09:54.636Z,1.42
2022-08-01T23:12:25.866Z,1.40
2022-08-01T23:14:55.919Z,1.38
2022-08-01T23:17:27.756Z,1.30
2022-08-01T23:19:57.358Z,1.95
2022-08-01T23:22:24.677Z,1.30
2022-08-01T23:25:05.488Z,1.25
2022-08-01T23:27:51.255Z,1.35
2022-08-01T23:30:27.487Z,1.33
2022-08-01T23:32:55.097Z,1.35
2022-08-01T23:35:22.500Z,1.50
2022-08-01T23:37:51.188Z,1.50
2022-08-01T23:40:18.627Z,1.38
2022-08-01T23:42:45.236Z,1.38
2022-08-01T23:45:11.894Z,1.55
2022-08-01T23:47:38.465Z,1.35
2022-08-01T23:50:07.599Z,1.38
2022-08-01T23:52:34.234Z,1.40
2022-08-01T23:55:12.357Z,1.55
2022-08-01T23:57:42.374Z,1.58
